Time;durP1;ratioP1;P1;durP2;ratioP2;P2;SDS_P1;SDS_P2;PMS_P1;PMS_P2;Temp;Humidity;BMP_temperature;BMP_pressure;BME280_temperature;BME280_humidity;BME280_pressure;Samples;Min_cycle;Max_cycle;Signal;HPM_P1;HPM_P2
2022/03/30 00:01:50;;;;;;;12.27;7.63;;;;;;;7.60;100.00;101028.56;5059316;28;20468;-27
2022/03/30 00:04:18;;;;;;;11.55;6.22;;;;;;;7.59;100.00;101027.72;5060994;28;20514;-27
2022/03/30 00:06:47;;;;;;;20.48;9.25;;;;;;;7.58;100.00;101039.13;5057875;28;20051;-32
2022/03/30 00:09:15;;;;;;;12.43;7.45;;;;;;;7.57;100.00;101040.25;5060503;28;20429;-27
2022/03/30 00:11:43;;;;;;;17.33;9.60;;;;;;;7.54;100.00;101036.06;5060236;28;20049;-29
2022/03/30 00:14:10;;;;;;;14.55;8.25;;;;;;;7.55;100.00;101036.91;5065439;28;20075;-32
2022/03/30 00:16:38;;;;;;;10.52;6.90;;;;;;;7.53;100.00;101030.78;5059080;28;20051;-26
2022/03/30 00:19:06;;;;;;;14.80;8.07;;;;;;;7.52;100.00;101020.78;5065275;28;20045;-29
2022/03/30 00:21:34;;;;;;;9.70;6.53;;;;;;;7.51;100.00;101022.72;5058655;28;20487;-28
2022/03/30 00:24:03;;;;;;;10.82;6.90;;;;;;;7.51;100.00;101014.41;5064766;28;20050;-31
2022/03/30 00:26:31;;;;;;;11.57;5.88;;;;;;;7.51;100.00;101013.56;5059667;28;20391;-32
2022/03/30 00:29:01;;;;;;;10.18;6.28;;;;;;;7.49;100.00;101013.00;5064510;28;20049;-29
2022/03/30 00:31:28;;;;;;;9.68;5.80;;;;;;;7.48;100.00;101020.50;5058864;28;20064;-31
2022/03/30 00:33:56;;;;;;;9.82;6.35;;;;;;;7.47;100.00;101013.28;5062318;28;20041;-31
2022/03/30 00:36:24;;;;;;;14.48;8.02;;;;;;;7.47;100.00;101012.44;5060783;28;20408;-33
2022/03/30 00:38:52;;;;;;;16.10;8.38;;;;;;;7.45;100.00;101006.34;5060876;28;20474;-30
2022/03/30 00:41:21;;;;;;;9.38;5.93;;;;;;;7.45;100.00;101000.78;5060134;28;20071;-29
2022/03/30 00:43:49;;;;;;;13.75;5.88;;;;;;;7.43;100.00;101006.59;5062337;28;20131;-31
2022/03/30 00:46:17;;;;;;;9.75;5.40;;;;;;;7.44;100.00;100996.34;5041113;28;20434;-29
2022/03/30 00:48:46;;;;;;;9.23;5.15;;;;;;;7.43;100.00;100998.28;5061969;28;20045;-30
2022/03/30 00:51:14;;;;;;;8.98;5.03;;;;;;;7.43;100.00;100991.88;5060593;28;20051;-30
2022/03/30 00:53:42;;;;;;;8.98;5.50;;;;;;;7.43;100.00;100997.44;5059831;28;20045;-29
2022/03/30 00:56:09;;;;;;;10.63;5.80;;;;;;;7.41;100.00;100994.94;5061648;28;20493;-33
2022/03/30 00:58:39;;;;;;;8.52;5.22;;;;;;;7.40;100.00;100993.28;5059269;28;20076;-29
2022/03/30 01:01:07;;;;;;;7.38;4.80;;;;;;;7.39;100.00;100986.06;5067536;28;20087;-36
2022/03/30 01:03:36;;;;;;;8.73;4.32;;;;;;;7.40;100.00;100989.66;5068040;28;20052;-31
2022/03/30 01:06:04;;;;;;;10.55;5.63;;;;;;;7.39;100.00;100985.25;5059760;28;20060;-29
2022/03/30 01:08:31;;;;;;;8.38;4.80;;;;;;;7.39;100.00;100986.06;5066976;28;20131;-25
2022/03/30 01:11:00;;;;;;;12.18;5.35;;;;;;;7.41;100.00;100980.22;5060967;28;20048;-32
2022/03/30 01:13:29;;;;;;;9.05;4.78;;;;;;;7.42;100.00;100973.56;5066004;28;20047;-31
2022/03/30 01:16:18;;;;;;;8.10;4.65;;;;;;;7.40;100.00;100961.91;5061180;28;20063;-30
2022/03/30 01:18:46;;;;;;;9.85;4.90;;;;;;;7.38;100.00;100966.91;5066739;28;20037;-27
2022/03/30 01:21:16;;;;;;;8.73;4.95;;;;;;;7.37;100.00;100960.53;5060084;28;20040;-26
2022/03/30 01:23:44;;;;;;;8.77;5.07;;;;;;;7.36;100.00;100963.59;5066646;28;20123;-25
2022/03/30 01:26:12;;;;;;;8.30;4.38;;;;;;;7.34;100.00;100958.31;5060930;28;20048;-29
2022/03/30 01:28:40;;;;;;;11.27;5.63;;;;;;;7.34;100.00;100960.25;5065699;28;20085;-29
2022/03/30 01:33:53;;;;;;;8.82;5.10;;;;;;;7.33;100.00;100953.03;5058451;28;20414;-26
2022/03/30 01:36:23;;;;;;;7.90;4.90;;;;;;;7.34;100.00;100947.19;5062758;28;20076;-34
2022/03/30 01:38:51;;;;;;;8.90;5.72;;;;;;;7.34;100.00;100949.13;5058526;28;20127;-29
2022/03/30 01:41:18;;;;;;;10.15;5.55;;;;;;;7.33;100.00;100933.59;5061595;28;20052;-29
2022/03/30 01:43:46;;;;;;;10.15;5.25;;;;;;;7.32;100.00;100934.69;5059250;28;20074;-32
2022/03/30 01:46:14;;;;;;;7.75;4.60;;;;;;;7.30;100.00;100932.19;5059983;28;20055;-35
2022/03/30 01:48:42;;;;;;;8.13;4.50;;;;;;;7.28;100.00;100936.34;5058590;28;20052;-35
2022/03/30 01:51:10;;;;;;;9.30;4.97;;;;;;;7.26;100.00;100934.69;5061306;28;20048;-34
2022/03/30 01:53:39;;;;;;;9.02;4.57;;;;;;;7.25;100.00;100930.25;5065750;28;20131;-24
2022/03/30 01:56:07;;;;;;;10.10;5.65;;;;;;;7.26;100.00;100933.84;5063006;28;20049;-26
2022/03/30 01:58:35;;;;;;;13.18;7.05;;;;;;;7.26;100.00;100926.34;5064491;28;20062;-32
2022/03/30 02:01:03;;;;;;;9.95;6.10;;;;;;;7.27;100.00;100924.41;5054785;28;20045;-28
2022/03/30 02:03:31;;;;;;;13.75;6.20;;;;;;;7.27;100.00;100927.19;5063434;28;20044;-28
2022/03/30 02:05:59;;;;;;;10.68;5.80;;;;;;;7.29;100.00;100929.69;5059390;28;20136;-31
2022/03/30 02:08:28;;;;;;;15.27;8.45;;;;;;;7.30;100.00;100926.66;5061659;28;20052;-29
2022/03/30 02:10:58;;;;;;;20.23;8.20;;;;;;;7.32;100.00;100923.59;5056930;28;20045;-30
2022/03/30 02:13:27;;;;;;;17.25;8.68;;;;;;;7.32;100.00;100918.88;5060531;28;20063;-28
2022/03/30 02:15:55;;;;;;;20.23;10.70;;;;;;;7.33;100.00;100928.88;5065709;28;20040;-28
2022/03/30 02:18:23;;;;;;;17.00;8.85;;;;;;;7.33;100.00;100923.31;5059720;28;20113;-31
2022/03/30 02:20:50;;;;;;;14.30;7.85;;;;;;;7.33;100.00;100915.00;5065694;28;20076;-29
2022/03/30 02:23:18;;;;;;;11.98;5.93;;;;;;;7.33;100.00;100909.44;5059273;28;20041;-34
2022/03/30 02:25:46;;;;;;;11.80;5.15;;;;;;;7.33;100.00;100914.16;5065545;28;20052;-31
2022/03/30 02:28:15;;;;;;;11.80;5.25;;;;;;;7.33;100.00;100916.94;5059728;28;20049;-30
2022/03/30 02:30:43;;;;;;;11.48;4.63;;;;;;;7.32;100.00;100898.63;5064488;28;20478;-28
2022/03/30 02:33:11;;;;;;;7.55;3.50;;;;;;;7.30;100.00;100907.22;5060454;28;20052;-30
2022/03/30 02:35:39;;;;;;;6.43;3.30;;;;;;;7.28;100.00;100903.03;5057746;28;20048;-29
2022/03/30 02:38:06;;;;;;;6.03;3.08;;;;;;;7.25;100.00;100893.31;5059812;28;20068;-32
2022/03/30 02:40:34;;;;;;;6.55;2.45;;;;;;;7.23;100.00;100895.53;5058788;28;20047;-27
2022/03/30 02:43:02;;;;;;;5.07;2.30;;;;;;;7.22;100.00;100905.81;5059363;28;20055;-32
2022/03/30 02:45:31;;;;;;;5.38;2.45;;;;;;;7.20;100.00;100893.31;5058074;28;20052;-29
2022/03/30 02:50:45;;;;;;;4.35;2.00;;;;;;;7.15;100.00;100888.63;5058874;28;20080;-33
2022/03/30 02:53:12;;;;;;;6.05;2.28;;;;;;;7.16;100.00;100892.22;5059385;28;20055;-29
2022/03/30 02:55:41;;;;;;;5.60;1.77;;;;;;;7.14;100.00;100889.72;5058062;28;20044;-31
2022/03/30 02:58:09;;;;;;;5.07;2.15;;;;;;;7.14;100.00;100888.88;5063562;28;20055;-28
2022/03/30 03:00:39;;;;;;;3.47;1.80;;;;;;;7.12;100.00;100886.38;5059424;28;20049;-30
2022/03/30 03:03:08;;;;;;;5.05;1.63;;;;;;;7.10;100.00;100885.81;5063771;28;20115;-28
2022/03/30 03:05:38;;;;;;;3.67;1.70;;;;;;;7.08;100.00;100881.66;5066861;28;20489;-25
2022/03/30 03:08:07;;;;;;;4.22;1.70;;;;;;;7.07;100.00;100880.81;5049843;28;20071;-31
2022/03/30 03:10:37;;;;;;;6.00;2.00;;;;;;;7.05;100.00;100877.50;5066061;28;20041;-28
2022/03/30 03:13:05;;;;;;;3.97;1.58;;;;;;;7.05;100.00;100876.66;5068082;28;20053;-33
2022/03/30 03:15:35;;;;;;;4.25;2.00;;;;;;;7.06;100.00;100879.16;5064456;28;20452;-32
2022/03/30 03:18:06;;;;;;;4.07;1.90;;;;;;;7.06;100.00;100879.16;5069247;28;20458;-31
2022/03/30 03:20:35;;;;;;;5.00;1.95;;;;;;;7.07;100.00;100880.00;5062260;28;20128;-27
2022/03/30 03:23:03;;;;;;;3.10;1.70;;;;;;;7.06;100.00;100879.16;5069064;28;20044;-28
2022/03/30 03:25:33;;;;;;;4.50;1.77;;;;;;;7.06;100.00;100873.59;5063048;28;20044;-26
2022/03/30 03:28:02;;;;;;;3.20;1.50;;;;;;;7.07;100.00;100874.44;5068067;28;20079;-33
2022/03/30 03:30:29;;;;;;;3.50;1.73;;;;;;;7.06;100.00;100870.84;5063067;28;20139;-27
2022/03/30 03:32:57;;;;;;;6.18;1.50;;;;;;;7.07;100.00;100864.19;5068338;28;20156;-31
2022/03/30 03:35:27;;;;;;;9.25;1.60;;;;;;;7.07;100.00;100863.34;5062461;28;20041;-30
2022/03/30 03:37:55;;;;;;;2.90;1.15;;;;;;;7.05;100.00;100866.41;5068436;28;20405;-32
2022/03/30 03:40:23;;;;;;;3.03;1.00;;;;;;;7.02;100.00;100861.38;5063328;28;20033;-31
2022/03/30 03:42:50;;;;;;;3.30;1.20;;;;;;;7.01;100.00;100861.66;5065820;28;20494;-30
2022/03/30 03:45:19;;;;;;;4.28;1.00;;;;;;;6.98;100.00;100854.75;5063776;28;20052;-32
2022/03/30 03:47:48;;;;;;;3.17;1.13;;;;;;;6.95;100.00;100854.47;5064248;28;20063;-31
2022/03/30 03:50:16;;;;;;;4.38;1.02;;;;;;;6.94;100.00;100861.13;5064351;28;20051;-28
2022/03/30 03:52:45;;;;;;;5.70;1.00;;;;;;;6.93;100.00;100854.75;5065034;28;20061;-31
2022/03/30 03:55:19;;;;;;;3.80;1.05;;;;;;;6.93;100.00;100853.91;5063090;28;20045;-29
2022/03/30 03:57:47;;;;;;;3.38;1.13;;;;;;;6.93;100.00;100854.75;5065800;28;20052;-25
2022/03/30 04:00:15;;;;;;;2.28;0.80;;;;;;;6.93;100.00;100857.50;5070422;28;20058;-32
2022/03/30 04:02:43;;;;;;;3.67;1.10;;;;;;;6.91;100.00;100855.00;5060693;28;20049;-28
2022/03/30 04:05:13;;;;;;;2.38;0.80;;;;;;;6.90;100.00;100845.03;5066552;28;20038;-35
2022/03/30 04:07:42;;;;;;;4.47;0.90;;;;;;;6.87;100.00;100848.34;5066627;28;20059;-31
2022/03/30 04:10:11;;;;;;;2.80;0.90;;;;;;;6.87;100.00;100847.50;5065380;28;20506;-25
2022/03/30 04:12:39;;;;;;;2.05;0.70;;;;;;;6.86;100.00;100848.63;5064945;28;20063;-29
2022/03/30 04:15:09;;;;;;;3.70;0.80;;;;;;;6.86;100.00;100843.91;5067536;28;20516;-29
2022/03/30 04:17:43;;;;;;;1.95;0.70;;;;;;;6.86;100.00;100843.06;5062359;28;20047;-28
2022/03/30 04:20:12;;;;;;;3.45;1.00;;;;;;;6.81;100.00;100849.44;5057501;28;20055;-30
2022/03/30 04:22:40;;;;;;;2.53;0.70;;;;;;;6.80;100.00;100847.75;5061624;28;20417;-30
2022/03/30 04:25:10;;;;;;;2.75;0.70;;;;;;;6.79;100.00;100850.84;5067262;28;20033;-33
2022/03/30 04:27:45;;;;;;;3.85;0.70;;;;;;;6.78;100.00;100849.16;5062083;28;20366;-33
2022/03/30 04:30:14;;;;;;;2.92;0.80;;;;;;;6.76;100.00;100845.84;5066730;28;20508;-29
2022/03/30 04:32:41;;;;;;;1.70;0.75;;;;;;;6.75;100.00;100853.31;5061474;28;20052;-30
2022/03/30 04:35:11;;;;;;;1.98;0.77;;;;;;;6.76;100.00;100852.22;5066013;28;20040;-33
2022/03/30 04:37:40;;;;;;;2.00;0.88;;;;;;;6.76;100.00;100857.75;5060253;28;20052;-32
2022/03/30 04:40:09;;;;;;;1.67;0.77;;;;;;;6.75;100.00;100860.81;5067479;28;20053;-25
2022/03/30 04:42:38;;;;;;;4.07;1.10;;;;;;;6.74;100.00;100850.81;5061906;28;20037;-32
2022/03/30 04:45:07;;;;;;;1.77;0.68;;;;;;;6.74;100.00;100853.59;5066503;28;20048;-33
2022/03/30 04:47:35;;;;;;;2.45;0.47;;;;;;;6.71;100.00;100843.88;5061900;28;20130;-31
2022/03/30 04:50:03;;;;;;;2.00;0.52;;;;;;;6.69;100.00;100846.09;5065630;28;20041;-30
2022/03/30 04:52:32;;;;;;;1.45;0.60;;;;;;;6.70;100.00;100846.91;5069946;28;20044;-31
2022/03/30 04:54:59;;;;;;;2.08;0.40;;;;;;;6.69;100.00;100848.03;5059817;28;20041;-30
2022/03/30 04:57:27;;;;;;;1.90;0.50;;;;;;;6.69;100.00;100845.25;5060400;28;20090;-34
2022/03/30 04:59:56;;;;;;;2.15;0.50;;;;;;;6.67;100.00;100839.16;5058761;28;20052;-31
2022/03/30 05:02:25;;;;;;;2.38;0.45;;;;;;;6.63;100.00;100843.56;5071544;28;20047;-29
2022/03/30 05:04:53;;;;;;;1.60;0.38;;;;;;;6.60;100.00;100841.34;5058766;28;20045;-28
2022/03/30 05:07:20;;;;;;;1.95;0.75;;;;;;;6.53;100.00;100833.31;5059333;28;20063;-31
2022/03/30 05:09:48;;;;;;;0.75;0.20;;;;;;;6.49;100.00;100838.56;5059038;28;20076;-27
2022/03/30 05:12:16;;;;;;;1.50;0.30;;;;;;;6.44;100.00;100838.53;5058496;28;20501;-34
2022/03/30 05:14:44;;;;;;;1.35;0.20;;;;;;;6.43;100.00;100841.56;5058126;28;20491;-28
2022/03/30 05:17:13;;;;;;;1.45;0.30;;;;;;;6.39;100.00;100832.16;5039565;28;20109;-32
2022/03/30 05:19:41;;;;;;;1.00;0.30;;;;;;;6.36;100.00;100832.69;5061294;28;20048;-30
2022/03/30 05:22:08;;;;;;;1.67;0.30;;;;;;;6.34;100.00;100830.19;5056215;28;20053;-26
2022/03/30 05:24:37;;;;;;;1.80;0.40;;;;;;;6.33;100.00;100827.69;5062742;28;20403;-29
2022/03/30 05:27:05;;;;;;;1.55;0.30;;;;;;;6.32;100.00;100835.16;5056181;28;20049;-33
2022/03/30 05:29:32;;;;;;;0.98;0.30;;;;;;;6.28;100.00;100824.91;5062573;28;20049;-28
2022/03/30 05:32:00;;;;;;;1.00;0.32;;;;;;;6.26;100.00;100822.41;5057355;28;20051;-29
2022/03/30 05:34:42;;;;;;;1.73;0.30;;;;;;;6.23;100.00;100825.69;5062279;28;20046;-33
2022/03/30 05:37:11;;;;;;;2.13;0.30;;;;;;;6.21;100.00;100822.38;5056856;28;20053;-27
2022/03/30 05:39:41;;;;;;;0.88;0.30;;;;;;;6.21;100.00;100822.38;5062403;28;20123;-37
2022/03/30 05:42:09;;;;;;;2.17;0.32;;;;;;;6.20;100.00;100817.94;5038376;28;20061;-32
2022/03/30 05:44:37;;;;;;;1.45;0.40;;;;;;;6.20;100.00;100817.94;5062766;28;20067;-29
2022/03/30 05:47:07;;;;;;;2.95;0.40;;;;;;;6.21;100.00;100816.81;5057322;28;20074;-27
2022/03/30 05:49:35;;;;;;;3.25;0.47;;;;;;;6.20;100.00;100817.94;5060596;28;20041;-32
2022/03/30 05:52:05;;;;;;;1.23;0.43;;;;;;;6.21;100.00;100816.81;5057814;28;20050;-27
2022/03/30 05:54:35;;;;;;;2.45;0.30;;;;;;;6.20;100.00;100809.63;5058687;28;20060;-32
2022/03/30 05:57:03;;;;;;;1.85;0.50;;;;;;;6.21;100.00;100814.06;5040438;28;20057;-25
2022/03/30 05:59:34;;;;;;;2.50;0.43;;;;;;;6.22;100.00;100818.50;5059324;28;20062;-30
2022/03/30 06:02:03;;;;;;;1.58;0.50;;;;;;;6.23;100.00;100809.09;5057004;28;20057;-29
2022/03/30 06:04:31;;;;;;;3.45;0.50;;;;;;;6.25;100.00;100806.03;5059616;28;20098;-30
2022/03/30 06:06:59;;;;;;;2.13;0.50;;;;;;;6.28;100.00;100811.03;5057231;28;20050;-33
2022/03/30 06:09:29;;;;;;;2.42;0.52;;;;;;;6.32;100.00;100815.78;5058673;28;20051;-31
2022/03/30 06:12:08;;;;;;;2.15;0.60;;;;;;;6.35;100.00;100817.16;5057447;28;20053;-28
2022/03/30 06:14:36;;;;;;;2.25;0.50;;;;;;;6.37;99.99;100813.03;5058863;28;20052;-31
2022/03/30 06:17:06;;;;;;;2.15;0.50;;;;;;;6.38;100.00;100811.91;5055768;28;20056;-26
2022/03/30 06:19:35;;;;;;;3.05;0.60;;;;;;;6.42;100.00;100821.34;5057664;28;20058;-28
2022/03/30 06:22:08;;;;;;;3.92;0.90;;;;;;;6.46;99.76;100808.59;5059019;28;20052;-26
2022/03/30 06:24:37;;;;;;;2.45;0.60;;;;;;;6.52;99.68;100817.78;5056734;28;20041;-25
2022/03/30 06:27:06;;;;;;;3.00;0.60;;;;;;;6.57;99.61;100821.41;5059820;28;20045;-29
2022/03/30 06:29:35;;;;;;;0.82;0.40;;;;;;;6.63;98.97;100819.44;5055780;28;20076;-36
2022/03/30 06:32:05;;;;;;;2.83;0.60;;;;;;;6.66;98.56;100815.28;5059753;28;20377;-27
2022/03/30 06:34:33;;;;;;;3.47;0.77;;;;;;;6.72;98.60;100825.31;5060788;28;20053;-27
2022/03/30 06:37:01;;;;;;;3.75;0.80;;;;;;;6.78;98.29;100813.94;5062423;28;20067;-33
2022/03/30 06:39:29;;;;;;;3.95;0.50;;;;;;;6.83;98.49;100807.56;5057502;28;20075;-34
2022/03/30 06:41:59;;;;;;;3.35;0.50;;;;;;;6.86;98.25;100810.63;5062819;28;20483;-32
2022/03/30 06:44:26;;;;;;;2.85;0.50;;;;;;;6.90;97.92;100808.97;5056737;28;20474;-29
2022/03/30 06:46:54;;;;;;;4.93;1.08;;;;;;;7.00;97.66;100804.50;5062892;28;20385;-26
2022/03/30 06:49:22;;;;;;;1.35;0.50;;;;;;;7.08;97.80;100807.56;5056398;28;20041;-33
2022/03/30 06:51:52;;;;;;;1.92;0.50;;;;;;;7.15;97.42;100810.09;5058879;28;20393;-31
2022/03/30 06:54:20;;;;;;;1.80;0.47;;;;;;;7.21;96.78;100812.56;5055099;28;20139;-28
2022/03/30 06:56:47;;;;;;;2.92;0.50;;;;;;;7.28;96.41;100803.13;5061099;28;20037;-27
2022/03/30 06:59:18;;;;;;;2.70;0.60;;;;;;;7.35;95.97;100798.97;5057796;28;20045;-26
2022/03/30 07:01:46;;;;;;;1.90;0.50;;;;;;;7.44;95.15;100796.44;5065540;28;20079;-33
2022/03/30 07:04:14;;;;;;;4.13;0.60;;;;;;;7.47;94.28;100793.13;5058632;28;20091;-33
2022/03/30 07:10:14;;;;;;;3.10;0.70;;;;;;;7.49;93.46;100802.81;5059138;28;20044;-31
2022/03/30 07:12:14;;;;;;;2.28;0.50;;;;;;;7.57;92.73;100801.44;5059667;28;20040;-31
2022/03/30 07:14:46;;;;;;;3.45;0.57;;;;;;;7.63;92.51;100803.06;5058613;28;20128;-29
2022/03/30 07:17:14;;;;;;;2.25;0.40;;;;;;;7.66;91.42;100799.72;5059145;28;20509;-30
2022/03/30 07:19:43;;;;;;;3.70;0.60;;;;;;;7.68;91.19;100808.63;5062776;28;20131;-29
2022/03/30 07:22:13;;;;;;;3.17;0.55;;;;;;;7.69;90.40;100799.19;5062407;28;20059;-31
2022/03/30 07:24:41;;;;;;;2.35;0.50;;;;;;;7.73;89.96;100803.06;5057063;28;20139;-31
2022/03/30 07:27:09;;;;;;;2.13;0.50;;;;;;;7.81;89.87;100801.63;5059298;28;20051;-32
2022/03/30 07:29:37;;;;;;;1.45;0.40;;;;;;;7.91;89.80;100796.91;5058233;28;20053;-36
2022/03/30 07:32:07;;;;;;;2.70;0.40;;;;;;;8.02;89.01;100792.13;5063538;28;20391;-31
2022/03/30 07:34:36;;;;;;;1.45;0.50;;;;;;;8.10;88.35;100785.97;5062603;28;20083;-33
2022/03/30 07:37:04;;;;;;;1.88;0.52;;;;;;;8.23;87.81;100793.69;5063212;28;20147;-30
2022/03/30 07:39:32;;;;;;;2.45;0.50;;;;;;;8.30;86.71;100791.44;5061703;28;20520;-30
2022/03/30 07:42:00;;;;;;;2.05;0.60;;;;;;;8.34;85.67;100790.91;5063713;28;20110;-34
2022/03/30 07:44:28;;;;;;;3.40;0.50;;;;;;;8.35;84.42;100784.22;5060959;28;20102;-31
2022/03/30 07:46:58;;;;;;;2.80;0.40;;;;;;;8.36;84.23;100785.91;5067464;28;20064;-29
2022/03/30 07:49:28;;;;;;;1.92;0.35;;;;;;;8.39;83.86;100794.50;5062904;28;20049;-33
2022/03/30 07:51:56;;;;;;;2.85;0.50;;;;;;;8.47;83.81;100788.31;5068226;28;20072;-27
2022/03/30 07:54:23;;;;;;;3.72;0.70;;;;;;;8.50;81.51;100790.53;5061751;28;20050;-31
2022/03/30 07:56:51;;;;;;;2.25;0.40;;;;;;;8.50;80.88;100789.69;5068114;28;20051;-28
2022/03/30 07:59:20;;;;;;;1.85;0.40;;;;;;;8.53;80.72;100787.19;5062555;28;20049;-26
2022/03/30 08:01:48;;;;;;;2.80;0.60;;;;;;;8.62;79.73;100792.94;5063189;28;20046;-27
2022/03/30 08:04:16;;;;;;;1.60;0.40;;;;;;;8.66;78.27;100784.88;5058378;28;20047;-29
2022/03/30 08:06:45;;;;;;;2.70;0.52;;;;;;;8.76;77.56;100782.84;5068041;28;20045;-32
2022/03/30 08:09:13;;;;;;;4.40;0.60;;;;;;;8.89;77.02;100786.94;5063507;28;20139;-33
2022/03/30 08:11:41;;;;;;;3.63;0.50;;;;;;;9.09;76.81;100783.97;5066499;28;20041;-34
2022/03/30 08:14:11;;;;;;;2.60;0.40;;;;;;;9.30;76.18;100782.69;5065607;28;20386;-26
2022/03/30 08:16:39;;;;;;;2.58;0.50;;;;;;;9.53;74.82;100777.44;5065550;28;20060;-30
2022/03/30 08:19:07;;;;;;;2.05;0.45;;;;;;;9.78;73.63;100788.34;5065210;28;20049;-33
2022/03/30 08:24:22;;;;;;;2.28;0.50;;;;;;;10.09;69.05;100783.22;5062095;28;20076;-30
2022/03/30 08:26:50;;;;;;;3.15;0.57;;;;;;;10.17;69.22;100774.19;5060238;28;20052;-31
2022/03/30 08:29:17;;;;;;;1.83;0.40;;;;;;;10.36;68.75;100774.25;5061967;28;20127;-33
2022/03/30 08:31:52;;;;;;;1.70;0.40;;;;;;;10.47;67.39;100770.19;5060110;28;20043;-27
2022/03/30 08:34:20;;;;;;;2.75;0.60;;;;;;;10.57;67.36;100775.63;5064919;28;20105;-30
2022/03/30 08:36:48;;;;;;;2.95;0.47;;;;;;;10.72;66.65;100768.97;5064979;28;20501;-30
2022/03/30 08:39:18;;;;;;;3.15;0.70;;;;;;;10.75;64.21;100771.16;5065937;28;20055;-30
2022/03/30 08:41:48;;;;;;;2.90;0.60;;;;;;;10.74;63.41;100774.25;5065730;28;20139;-32
2022/03/30 08:44:17;;;;;;;1.77;0.47;;;;;;;10.78;63.95;100776.16;5065214;28;20090;-33
2022/03/30 08:46:46;;;;;;;2.85;0.60;;;;;;;10.86;63.50;100781.03;5064021;28;20043;-34
2022/03/30 08:49:15;;;;;;;2.65;0.50;;;;;;;10.94;63.19;100766.41;5066905;28;20052;-28
2022/03/30 08:51:47;;;;;;;4.40;0.70;;;;;;;11.02;62.88;100773.25;5061151;28;20037;-31
2022/03/30 08:54:16;;;;;;;3.38;0.55;;;;;;;11.04;61.93;100773.75;5067403;28;20139;-26
2022/03/30 08:56:46;;;;;;;2.47;0.60;;;;;;;10.95;61.58;100770.03;5060294;28;20072;-30
2022/03/30 08:59:18;;;;;;;2.83;0.52;;;;;;;10.87;61.59;100768.75;5066269;28;20045;-33
2022/03/30 09:01:46;;;;;;;2.22;0.45;;;;;;;10.81;61.21;100757.94;5062698;28;20055;-28
2022/03/30 09:04:15;;;;;;;3.25;0.40;;;;;;;10.83;61.48;100764.06;5039959;28;20132;-26
2022/03/30 09:06:46;;;;;;;1.30;0.30;;;;;;;10.84;60.55;100760.97;5064620;28;20044;-30
2022/03/30 09:09:15;;;;;;;2.70;0.52;;;;;;;10.92;60.91;100767.84;5059349;28;20049;-31
2022/03/30 09:11:45;;;;;;;3.83;0.60;;;;;;;10.98;60.07;100763.84;5063307;28;20493;-32
2022/03/30 09:14:15;;;;;;;3.33;0.93;;;;;;;10.96;59.45;100761.34;5058907;28;20041;-35
2022/03/30 09:16:45;;;;;;;3.50;0.55;;;;;;;10.94;59.55;100762.78;5064072;28;20132;-31
2022/03/30 09:19:14;;;;;;;4.60;0.68;;;;;;;10.98;59.76;100764.66;5058141;28;20071;-27
2022/03/30 09:21:44;;;;;;;2.95;0.50;;;;;;;11.01;59.34;100766.00;5063125;28;20379;-28
2022/03/30 09:24:12;;;;;;;1.92;0.55;;;;;;;11.01;59.58;100768.78;5058863;28;20051;-30
2022/03/30 09:26:42;;;;;;;2.55;0.50;;;;;;;11.11;59.77;100767.81;5060624;28;20049;-31
2022/03/30 09:29:10;;;;;;;4.68;1.02;;;;;;;11.22;59.68;100770.09;5059777;28;20473;-33
2022/03/30 09:31:41;;;;;;;5.63;0.70;;;;;;;11.37;59.58;100767.06;5060794;28;20056;-30
2022/03/30 09:34:10;;;;;;;3.00;0.43;;;;;;;11.50;58.92;100772.97;5064215;28;20048;-37
2022/03/30 09:36:40;;;;;;;2.03;0.50;;;;;;;11.61;59.08;100766.03;5063566;28;20045;-31
2022/03/30 09:39:11;;;;;;;4.13;0.70;;;;;;;11.75;58.51;100766.91;5065934;28;20490;-32
2022/03/30 09:41:46;;;;;;;3.65;0.70;;;;;;;11.79;57.88;100755.97;5044894;28;20051;-28
2022/03/30 09:44:15;;;;;;;3.20;0.55;;;;;;;11.80;58.05;100766.81;5065160;28;20051;-31
2022/03/30 09:46:55;;;;;;;3.72;0.70;;;;;;;11.99;57.40;100767.53;5063022;28;20136;-29
2022/03/30 09:49:45;;;;;;;2.60;0.45;;;;;;;12.16;56.95;100761.34;5047554;28;20045;-31
2022/03/30 09:52:18;;;;;;;3.50;0.68;;;;;;;12.39;56.97;100771.44;5055526;28;20409;-30
2022/03/30 09:54:49;;;;;;;2.33;0.45;;;;;;;12.64;56.39;100766.41;5058503;28;20055;-28
2022/03/30 09:57:20;;;;;;;2.78;0.47;;;;;;;12.70;55.49;100759.56;5060989;28;20059;-36
2022/03/30 10:00:10;;;;;;;3.30;0.75;;;;;;;12.73;54.54;100756.97;5058361;28;20117;-31
2022/03/30 10:02:41;;;;;;;3.90;0.60;;;;;;;12.71;55.59;100762.06;5047209;28;20067;-32
2022/03/30 10:05:11;;;;;;;4.10;0.75;;;;;;;12.75;55.10;100763.09;5064574;28;20041;-28
2022/03/30 10:07:40;;;;;;;3.08;0.60;;;;;;;12.80;54.58;100766.88;5061924;28;20466;-31
2022/03/30 10:10:09;;;;;;;3.40;0.70;;;;;;;12.85;53.91;100766.78;5057723;28;20040;-29
2022/03/30 10:12:39;;;;;;;3.63;0.50;;;;;;;12.89;54.31;100746.22;5063162;28;20068;-34
2022/03/30 10:15:09;;;;;;;5.25;0.80;;;;;;;13.07;53.92;100747.19;5063294;28;20049;-30
2022/03/30 10:17:39;;;;;;;3.60;0.50;;;;;;;13.04;53.08;100753.41;5059365;28;20044;-30
2022/03/30 10:20:10;;;;;;;4.00;0.70;;;;;;;12.97;52.56;100748.28;5059155;28;20045;-28
2022/03/30 10:23:17;;;;;;;3.25;0.70;;;;;;;12.91;51.11;100743.09;5058441;28;20467;-29
2022/03/30 10:26:01;;;;;;;2.70;0.63;;;;;;;13.02;51.73;100747.28;5047088;28;20045;-30
2022/03/30 10:28:48;;;;;;;8.18;0.80;;;;;;;13.10;52.01;100746.53;5045404;28;20071;-34
2022/03/30 10:31:21;;;;;;;4.45;0.80;;;;;;;13.21;52.80;100747.13;5064313;28;20037;-30
2022/03/30 10:33:52;;;;;;;2.92;0.60;;;;;;;13.30;52.45;100750.81;5059807;28;20049;-27
2022/03/30 10:36:23;;;;;;;4.55;0.85;;;;;;;13.45;52.43;100748.44;5058250;28;20049;-32
2022/03/30 10:39:24;;;;;;;6.45;0.88;;;;;;;13.58;52.35;100741.09;5039978;28;20139;-34
2022/03/30 10:42:12;;;;;;;3.08;0.68;;;;;;;13.59;53.44;100736.31;5037642;28;20049;-32
2022/03/30 10:44:42;;;;;;;3.35;0.75;;;;;;;13.60;52.43;100730.38;5042175;28;20541;-37
2022/03/30 10:47:13;;;;;;;3.55;0.73;;;;;;;13.48;52.05;100732.97;5037325;28;20144;-26
2022/03/30 10:49:45;;;;;;;2.45;0.50;;;;;;;13.45;52.55;100725.19;5041875;28;20045;-31
2022/03/30 10:52:39;;;;;;;3.28;0.50;;;;;;;13.40;51.63;100733.72;5037418;28;20418;-30
2022/03/30 10:55:28;;;;;;;4.22;0.80;;;;;;;13.28;52.06;100727.91;5042996;28;20132;-31
2022/03/30 10:57:58;;;;;;;2.60;0.52;;;;;;;13.13;53.48;100734.69;5008145;28;20418;-31
2022/03/30 11:00:28;;;;;;;2.33;0.43;;;;;;;13.08;53.59;100729.22;5044604;28;20110;-29
2022/03/30 11:03:10;;;;;;;3.42;0.52;;;;;;;13.09;53.29;100737.31;5043816;28;20410;-31
2022/03/30 11:05:43;;;;;;;2.83;0.70;;;;;;;13.09;53.38;100730.88;5043438;28;20053;-28
2022/03/30 11:08:45;;;;;;;2.63;0.63;;;;;;;13.03;52.84;100720.94;5037213;28;20088;-31
2022/03/30 11:11:22;;;;;;;3.05;0.68;;;;;;;12.98;52.91;100726.69;5042060;28;20156;-29
2022/03/30 11:14:05;;;;;;;2.88;0.75;;;;;;;12.78;54.22;100716.81;5043182;28;20041;-31
2022/03/30 11:16:48;;;;;;;2.08;0.60;;;;;;;12.62;54.33;100721.94;5040260;28;20517;-31
2022/03/30 11:19:15;;;;;;;;;;;;;;;12.47;53.91;100721.47;5045167;28;20049;-32
2022/03/30 11:21:55;;;;;;;5.03;0.80;;;;;;;12.34;55.57;100718.41;5043980;28;19924;-30
2022/03/30 11:24:25;;;;;;;3.38;0.80;;;;;;;12.27;56.83;100714.38;5048682;28;20055;-33
2022/03/30 11:27:20;;;;;;;4.72;0.80;;;;;;;12.21;55.55;100708.06;5043340;28;20041;-34
2022/03/30 11:30:13;;;;;;;5.68;0.80;;;;;;;12.15;56.34;100706.53;5047211;28;20139;-33
2022/03/30 11:32:44;;;;;;;3.45;0.70;;;;;;;12.12;56.97;100714.72;5046650;28;20052;-28
2022/03/30 11:35:15;;;;;;;3.08;0.68;;;;;;;12.10;56.56;100700.22;5042243;28;20029;-28
2022/03/30 11:37:46;;;;;;;3.80;0.82;;;;;;;12.13;56.23;100705.19;5052920;28;20052;-31
2022/03/30 11:40:16;;;;;;;3.55;0.80;;;;;;;12.15;55.80;100705.72;5060971;28;20549;-30
2022/03/30 11:42:51;;;;;;;3.63;0.80;;;;;;;12.12;55.73;100700.75;5062402;28;20049;-30
2022/03/30 11:45:21;;;;;;;3.75;0.80;;;;;;;12.06;55.30;100694.41;5066935;28;20052;-35
2022/03/30 11:47:58;;;;;;;4.22;1.13;;;;;;;11.87;55.71;100688.97;5065726;28;20461;-31
2022/03/30 11:50:28;;;;;;;3.53;1.00;;;;;;;11.66;56.35;100696.06;5066947;28;20055;-32
2022/03/30 11:53:00;;;;;;;4.40;0.75;;;;;;;11.54;56.85;100688.22;5064201;28;20045;-30